Date,TemperatureHighF,TemperatureAvgF,TemperatureLowF,DewpointHighF,DewpointAvgF,DewpointLowF,HumidityHigh,HumidityAvg,HumidityLow,PressureMaxIn,PressureMinIn,WindSpeedMaxMPH,WindSpeedAvgMPH,GustSpeedMaxMPH,PrecipitationSumIn
2012-12-1,78.0,74.1,71.9,63.3,60.6,58.0,71,63,53,30.29,30.22,19,7,19,0.00
2012-12-2,79.0,75.0,72.8,64.4,62.5,60.5,71,65,58,30.33,30.24,20,8,21,0.00
2012-12-3,77.4,73.7,71.8,63.7,58.7,49.3,73,60,43,30.34,30.26,17,7,21,0.00
2012-12-4,76.8,73.6,70.9,62.3,58.1,49.5,74,59,46,30.33,30.24,18,6,19,0.00
2012-12-5,80.2,74.6,71.5,64.0,61.3,57.8,72,64,50,30.25,30.12,14,5,15,0.00
2012-12-6,79.4,74.7,70.3,67.6,65.3,61.2,87,73,57,30.12,29.99,18,4,22,0.00
2012-12-7,80.9,73.5,66.4,69.5,65.4,62.8,92,76,58,30.08,30.00,14,2,15,0.00
2012-12-8,81.3,75.4,67.0,71.8,68.0,63.9,92,78,62,30.13,30.05,15,3,15,0.00
2012-12-9,82.4,76.5,70.0,73.3,71.2,67.2,92,84,66,30.18,30.08,11,2,13,0.00
2012-12-10,83.5,76.9,68.8,74.2,71.0,65.7,92,83,68,30.12,29.99,17,4,18,0.00
2012-12-11,85.3,77.7,71.6,74.7,72.2,68.3,92,83,64,30.16,30.00,14,4,17,0.80
2012-12-12,72.7,72.2,71.5,70.6,70.1,69.2,94,93,92,30.15,30.12,0,0,0,0.10
2012-12-18,82.7,77.5,69.8,68.9,64.7,62.0,94,65,51,30.10,30.00,16,4,16,0.00
2012-12-19,80.8,71.8,60.3,64.9,60.2,53.8,84,69,40,30.18,30.09,11,2,12,0.00
2012-12-20,81.0,75.1,70.6,65.5,63.7,58.6,82,68,50,30.18,30.05,14,4,17,0.00
2012-12-21,71.4,61.8,50.2,65.8,41.1,28.5,86,49,26,30.26,30.05,22,6,22,0.00
2012-12-22,65.7,54.0,44.4,37.0,29.7,20.4,62,42,19,30.34,30.25,15,4,17,0.00
2012-12-23,71.0,60.1,49.3,55.4,45.4,34.0,76,59,44,30.33,30.23,11,2,12,0.00
2012-12-24,76.5,66.5,57.3,58.6,55.5,51.0,85,69,48,30.24,30.08,16,2,16,0.00
2012-12-25,78.5,69.4,58.9,63.0,59.4,56.1,91,72,51,30.14,30.02,14,3,16,0.00
2012-12-26,83.3,74.8,62.6,69.3,65.2,57.5,89,73,52,30.07,29.90,24,7,24,0.00
2012-12-27,71.1,60.2,51.9,58.0,49.0,41.0,90,69,34,30.17,30.06,13,2,15,0.00
2012-12-28,75.8,68.1,53.8,69.4,61.9,50.0,89,81,63,30.18,30.06,12,3,14,0.00
2012-12-29,80.7,74.9,61.0,71.7,67.6,52.8,89,78,63,30.19,30.00,21,6,21,0.00
2012-12-30,67.7,60.4,49.4,55.2,50.5,44.9,86,70,59,30.39,30.19,18,6,19,0.00
2012-12-31,73.4,69.6,65.7,60.0,56.0,52.0,67,62,55,30.41,30.28,18,7,18,0.00